createdAt,value
2022-08-23T00:01:24.263Z,19.60
2022-08-23T00:03:56.176Z,19.60
2022-08-23T00:06:24.585Z,19.50
2022-08-23T00:08:54.334Z,19.50
2022-08-23T00:11:30.355Z,19.40
2022-08-23T00:14:00.619Z,19.40
2022-08-23T00:16:29.391Z,19.30
2022-08-23T00:18:59.247Z,19.30
2022-08-23T00:21:27.927Z,19.20
2022-08-23T00:23:56.161Z,19.30
2022-08-23T00:26:25.630Z,19.10
2022-08-23T00:28:53.851Z,19.00
2022-08-23T00:31:22.022Z,18.80
2022-08-23T00:33:50.147Z,18.70
2022-08-23T00:36:19.611Z,18.70
2022-08-23T00:38:47.697Z,18.70
2022-08-23T00:41:15.800Z,18.80
2022-08-23T00:44:01.682Z,18.70
2022-08-23T00:46:59.262Z,18.50
2022-08-23T00:49:28.051Z,18.60
2022-08-23T00:52:06.555Z,18.50
2022-08-23T00:54:37.713Z,18.40
2022-08-23T00:57:09.140Z,18.20
2022-08-23T00:59:37.540Z,18.20
2022-08-23T01:02:09.699Z,18.20
2022-08-23T01:04:41.075Z,18.10
2022-08-23T01:07:17.259Z,18.20
2022-08-23T01:09:47.510Z,18.10
2022-08-23T01:12:30.434Z,18.10
2022-08-23T01:15:05.002Z,18.10
2022-08-23T01:17:43.697Z,18.00
2022-08-23T01:20:15.072Z,17.90
2022-08-23T01:23:03.158Z,17.70
2022-08-23T01:25:34.960Z,17.70
2022-08-23T01:28:03.215Z,17.70
2022-08-23T01:30:34.365Z,17.70
2022-08-23T01:33:05.417Z,17.70
2022-08-23T01:35:39.179Z,17.70
2022-08-23T01:38:08.647Z,17.80
2022-08-23T01:40:38.575Z,17.70
2022-08-23T01:43:08.567Z,17.70
2022-08-23T01:45:39.695Z,17.90
2022-08-23T01:48:08.987Z,17.70
2022-08-23T01:50:40.320Z,17.50
2022-08-23T01:53:09.158Z,17.40
2022-08-23T01:55:40.542Z,17.40
2022-08-23T01:58:08.943Z,17.40
2022-08-23T02:00:41.363Z,17.40
2022-08-23T02:03:12.435Z,17.50
2022-08-23T02:05:41.170Z,17.40
2022-08-23T02:08:30.429Z,17.30
2022-08-23T02:11:01.553Z,17.20
2022-08-23T02:13:29.800Z,17.00
2022-08-23T02:15:59.539Z,17.00
2022-08-23T02:18:27.967Z,17.00
2022-08-23T02:20:56.092Z,17.00
2022-08-23T02:23:25.115Z,17.00
2022-08-23T02:25:53.353Z,17.10
2022-08-23T02:28:25.543Z,17.10
2022-08-23T02:30:54.008Z,17.00
2022-08-23T02:33:22.163Z,17.00
2022-08-23T02:35:50.595Z,17.00
2022-08-23T02:38:19.400Z,17.00
2022-08-23T02:40:52.987Z,17.00
2022-08-23T02:43:30.557Z,16.90
2022-08-23T02:45:59.067Z,16.80
2022-08-23T02:48:27.843Z,16.60
2022-08-23T02:51:04.693Z,16.50
2022-08-23T02:53:33.581Z,16.50
2022-08-23T02:56:06.025Z,16.50
2022-08-23T02:58:46.674Z,16.50
2022-08-23T03:01:25.564Z,16.60
2022-08-23T03:03:55.873Z,16.70
2022-08-23T03:06:26.331Z,16.70
2022-08-23T03:08:54.753Z,16.60
2022-08-23T03:11:23.518Z,16.70
2022-08-23T03:13:56.280Z,16.50
2022-08-23T03:16:25.651Z,16.40
2022-08-23T03:18:54.087Z,16.40
2022-08-23T03:21:23.218Z,16.40
2022-08-23T03:23:51.883Z,16.60
2022-08-23T03:26:20.380Z,16.60
2022-08-23T03:28:48.876Z,16.50
2022-08-23T03:31:19.101Z,16.40
2022-08-23T03:34:01.048Z,16.30
2022-08-23T03:36:29.262Z,16.30
2022-08-23T03:38:59.323Z,16.40
2022-08-23T03:41:28.487Z,16.30
2022-08-23T03:43:57.579Z,16.20
2022-08-23T03:46:33.775Z,16.30
2022-08-23T03:49:03.775Z,16.30
2022-08-23T03:51:43.340Z,16.20
2022-08-23T03:54:11.962Z,16.20
2022-08-23T03:56:52.583Z,16.10
2022-08-23T03:59:21.364Z,16.20
2022-08-23T04:01:50.892Z,16.10
2022-08-23T04:04:19.100Z,16.10
2022-08-23T04:07:05.716Z,16.10
2022-08-23T04:09:34.250Z,16.00
2022-08-23T04:12:02.574Z,15.90
2022-08-23T04:14:30.755Z,16.00
2022-08-23T04:17:00.231Z,16.10
2022-08-23T04:19:28.669Z,16.10
2022-08-23T04:22:07.128Z,16.20
2022-08-23T04:24:42.364Z,16.10
2022-08-23T04:27:11.485Z,16.00
2022-08-23T04:29:39.942Z,16.00
2022-08-23T04:32:12.559Z,16.10
2022-08-23T04:34:45.325Z,16.00
2022-08-23T04:37:18.535Z,16.00
2022-08-23T04:40:04.178Z,16.00
2022-08-23T04:42:41.662Z,16.00
2022-08-23T04:45:11.552Z,15.90
2022-08-23T04:47:44.954Z,15.80
2022-08-23T04:50:13.591Z,15.80
2022-08-23T04:53:00.432Z,15.80
2022-08-23T04:55:30.612Z,15.80
2022-08-23T04:58:06.315Z,15.80
2022-08-23T05:00:41.862Z,15.80
2022-08-23T05:03:12.403Z,15.90
2022-08-23T05:05:41.862Z,16.00
2022-08-23T05:08:10.315Z,16.20
2022-08-23T05:10:39.625Z,16.20
2022-08-23T05:13:07.852Z,16.20
2022-08-23T05:15:35.997Z,16.30
2022-08-23T05:18:06.692Z,16.50
2022-08-23T05:20:38.546Z,16.70
2022-08-23T05:23:06.850Z,16.70
2022-08-23T05:25:53.567Z,16.90
2022-08-23T05:28:39.876Z,16.90
2022-08-23T05:31:11.517Z,17.00
2022-08-23T05:33:51.171Z,17.00
2022-08-23T05:36:28.056Z,17.00
2022-08-23T05:38:56.322Z,17.10
2022-08-23T05:41:33.387Z,17.10
2022-08-23T05:44:08.819Z,17.10
2022-08-23T05:46:37.903Z,17.20
2022-08-23T05:49:29.190Z,17.40
2022-08-23T05:51:59.168Z,17.50
2022-08-23T05:54:31.322Z,17.50
2022-08-23T05:57:17.164Z,17.60
2022-08-23T05:59:45.488Z,17.60
2022-08-23T06:02:13.589Z,17.70
2022-08-23T06:04:41.996Z,17.70
2022-08-23T06:07:11.999Z,17.80
2022-08-23T06:09:40.782Z,17.90
2022-08-23T06:12:10.696Z,18.10
2022-08-23T06:14:39.446Z,18.10
2022-08-23T06:17:08.659Z,18.20
2022-08-23T06:19:37.171Z,18.30
2022-08-23T06:22:23.528Z,18.40
2022-08-23T06:24:51.711Z,18.70
2022-08-23T06:27:19.936Z,19.30
2022-08-23T06:29:49.143Z,19.60
2022-08-23T06:32:32.275Z,19.50
2022-08-23T06:35:39.257Z,19.60
2022-08-23T06:38:22.551Z,19.50
2022-08-23T06:41:12.787Z,19.50
2022-08-23T06:43:53.904Z,19.70
2022-08-23T06:46:33.158Z,19.90
2022-08-23T06:49:05.119Z,19.90
2022-08-23T06:51:36.482Z,20.00
2022-08-23T06:54:22.037Z,20.20
2022-08-23T06:57:02.400Z,20.30
2022-08-23T06:59:33.549Z,20.40
2022-08-23T07:02:15.642Z,20.50
2022-08-23T07:04:59.371Z,20.60
2022-08-23T07:07:50.980Z,20.70
2022-08-23T07:10:21.465Z,20.90
2022-08-23T07:12:50.119Z,21.00
2022-08-23T07:15:21.288Z,21.10
2022-08-23T07:17:50.091Z,21.10
2022-08-23T07:20:19.119Z,21.00
2022-08-23T07:22:47.367Z,21.00
2022-08-23T07:25:15.566Z,20.90
2022-08-23T07:27:54.382Z,20.90
2022-08-23T07:30:23.354Z,20.90
2022-08-23T07:32:52.881Z,21.00
2022-08-23T07:35:36.823Z,21.10
2022-08-23T07:38:08.059Z,21.10
2022-08-23T07:40:38.985Z,21.20
2022-08-23T07:43:09.672Z,21.30
2022-08-23T07:45:40.730Z,21.40
2022-08-23T07:48:14.396Z,21.40
2022-08-23T07:51:16.762Z,21.60
2022-08-23T07:53:46.189Z,21.80
2022-08-23T07:56:18.665Z,21.70
2022-08-23T07:59:07.844Z,21.70
2022-08-23T08:01:58.822Z,21.80
2022-08-23T08:04:27.844Z,22.00
2022-08-23T08:07:17.586Z,22.10
2022-08-23T08:09:47.241Z,22.20
2022-08-23T08:12:16.564Z,22.40
2022-08-23T08:14:48.263Z,22.40
2022-08-23T08:17:18.429Z,22.30
2022-08-23T08:20:06.440Z,22.50
2022-08-23T08:22:56.406Z,22.50
2022-08-23T08:25:28.594Z,22.60
2022-08-23T08:27:59.465Z,22.70
2022-08-23T08:30:29.193Z,22.90
2022-08-23T08:32:57.374Z,22.90
2022-08-23T08:35:26.268Z,23.10
2022-08-23T08:37:54.542Z,23.20
2022-08-23T08:40:31.318Z,23.30
2022-08-23T08:43:26.195Z,23.50
2022-08-23T08:46:06.289Z,23.50
2022-08-23T08:48:41.773Z,23.50
2022-08-23T08:51:25.772Z,23.80
2022-08-23T08:53:55.885Z,23.80
2022-08-23T08:56:35.351Z,23.90
2022-08-23T08:59:21.595Z,24.00
2022-08-23T09:01:52.338Z,24.30
2022-08-23T09:04:29.866Z,24.50
2022-08-23T09:07:07.791Z,24.50
2022-08-23T09:10:15.223Z,24.50
2022-08-23T09:13:05.320Z,24.70
2022-08-23T09:15:42.371Z,24.70
2022-08-23T09:18:14.070Z,24.60
2022-08-23T09:20:44.302Z,24.90
2022-08-23T09:23:18.790Z,25.00
2022-08-23T09:25:53.359Z,25.10
2022-08-23T09:28:24.998Z,25.30
2022-08-23T09:30:56.306Z,25.60
2022-08-23T09:33:39.331Z,25.80
2022-08-23T09:36:18.967Z,25.70
2022-08-23T09:38:55.371Z,25.80
2022-08-23T09:41:27.739Z,26.10
2022-08-23T09:44:01.693Z,26.40
2022-08-23T09:46:32.566Z,26.40
2022-08-23T09:49:24.976Z,26.60
2022-08-23T09:51:56.860Z,26.90
2022-08-23T09:54:31.956Z,26.90
2022-08-23T09:57:03.062Z,26.70
2022-08-23T09:59:42.401Z,26.80
2022-08-23T10:02:25.218Z,27.40
2022-08-23T10:05:02.950Z,27.90
2022-08-23T10:07:40.414Z,29.00
2022-08-23T10:10:23.822Z,30.60
2022-08-23T10:12:56.511Z,31.40
2022-08-23T10:15:36.180Z,31.50
2022-08-23T10:18:09.544Z,31.80
2022-08-23T10:20:48.254Z,32.40
2022-08-23T10:23:24.911Z,32.80
2022-08-23T10:25:58.484Z,33.10
2022-08-23T10:28:56.196Z,33.00
2022-08-23T10:31:38.911Z,33.70
2022-08-23T10:34:25.728Z,33.80
2022-08-23T10:37:14.322Z,33.90
2022-08-23T10:39:48.429Z,33.60
2022-08-23T10:42:25.716Z,32.80
2022-08-23T10:44:59.155Z,32.00
2022-08-23T10:47:37.151Z,31.20
2022-08-23T10:50:12.352Z,31.60
2022-08-23T10:52:51.020Z,32.90
2022-08-23T10:55:35.715Z,32.50
2022-08-23T10:58:07.997Z,33.30
2022-08-23T11:00:38.203Z,33.30
2022-08-23T11:03:15.797Z,32.40
2022-08-23T11:05:44.041Z,32.90
2022-08-23T11:08:34.783Z,33.50
2022-08-23T11:11:06.234Z,32.10
2022-08-23T11:13:36.588Z,31.80
2022-08-23T11:16:16.239Z,32.80
2022-08-23T11:18:48.524Z,33.60
2022-08-23T11:21:50.197Z,33.20
2022-08-23T11:24:51.216Z,33.50
2022-08-23T11:27:34.634Z,33.50
2022-08-23T11:30:44.183Z,33.00
2022-08-23T11:33:21.657Z,33.70
2022-08-23T11:35:52.955Z,33.30
2022-08-23T11:38:56.023Z,33.40
2022-08-23T11:41:27.505Z,32.50
2022-08-23T11:44:18.383Z,33.10
2022-08-23T11:47:04.330Z,34.10
2022-08-23T11:50:12.903Z,34.60
2022-08-23T11:53:19.949Z,34.60
2022-08-23T11:56:11.303Z,34.50
2022-08-23T11:58:58.947Z,34.30
2022-08-23T12:01:34.108Z,34.70
2022-08-23T12:04:10.388Z,34.60
2022-08-23T12:06:51.248Z,34.20
2022-08-23T12:09:52.407Z,34.30
2022-08-23T12:12:46.981Z,34.10
2022-08-23T12:15:18.351Z,34.00
2022-08-23T12:18:09.316Z,34.20
2022-08-23T12:20:38.879Z,34.00
2022-08-23T12:23:16.298Z,33.00
2022-08-23T12:25:44.900Z,33.20
2022-08-23T12:28:31.499Z,32.40
2022-08-23T12:31:07.966Z,31.90
2022-08-23T12:33:44.379Z,31.90
2022-08-23T12:36:19.647Z,31.50
2022-08-23T12:38:58.087Z,32.00
2022-08-23T12:41:29.147Z,32.80
2022-08-23T12:44:00.970Z,33.70
2022-08-23T12:46:38.248Z,34.80
2022-08-23T12:49:08.178Z,34.20
2022-08-23T12:51:43.088Z,33.40
2022-08-23T12:54:16.617Z,32.80
2022-08-23T12:56:48.598Z,32.30
2022-08-23T12:59:34.471Z,30.80
2022-08-23T13:02:07.734Z,30.50
2022-08-23T13:04:38.972Z,30.50
2022-08-23T13:07:11.069Z,30.60
2022-08-23T13:09:41.792Z,30.80
2022-08-23T13:12:11.691Z,30.60
2022-08-23T13:14:46.340Z,30.50
2022-08-23T13:17:23.040Z,31.00
2022-08-23T13:19:53.000Z,31.70
2022-08-23T13:22:25.146Z,31.50
2022-08-23T13:27:56.720Z,31.30
2022-08-23T13:30:27.007Z,32.10
2022-08-23T13:33:20.245Z,32.60
2022-08-23T13:35:49.909Z,33.10
2022-08-23T13:38:23.161Z,32.80
2022-08-23T13:41:01.047Z,31.40
2022-08-23T13:43:34.851Z,30.10
2022-08-23T13:46:15.800Z,29.80
2022-08-23T13:48:51.566Z,29.60
2022-08-23T13:51:25.911Z,30.20
2022-08-23T13:53:54.617Z,30.50
2022-08-23T13:56:23.963Z,31.00
2022-08-23T13:58:57.726Z,31.30
2022-08-23T14:01:26.803Z,31.00
2022-08-23T14:03:56.474Z,31.00
2022-08-23T14:06:25.547Z,30.80
2022-08-23T14:08:53.708Z,31.00
2022-08-23T14:11:21.848Z,31.00
2022-08-23T14:13:51.026Z,30.50
2022-08-23T14:16:40.573Z,30.60
2022-08-23T14:19:16.560Z,30.80
2022-08-23T14:22:01.225Z,31.20
2022-08-23T14:24:29.882Z,30.80
2022-08-23T14:26:58.706Z,31.10
2022-08-23T14:29:29.092Z,30.80
2022-08-23T14:31:58.727Z,30.50
2022-08-23T14:34:29.370Z,30.60
2022-08-23T14:39:49.313Z,30.70
2022-08-23T14:42:20.236Z,30.60
2022-08-23T14:44:48.364Z,30.70
2022-08-23T14:47:16.488Z,30.50
2022-08-23T14:49:49.037Z,30.50
2022-08-23T14:52:20.203Z,30.40
2022-08-23T14:54:49.545Z,30.40
2022-08-23T14:57:17.901Z,30.40
2022-08-23T14:59:46.404Z,30.70
2022-08-23T15:02:20.182Z,30.60
2022-08-23T15:04:49.683Z,30.80
2022-08-23T15:07:19.124Z,30.70
2022-08-23T15:09:48.620Z,30.50
2022-08-23T15:15:06.992Z,30.80
2022-08-23T15:17:38.063Z,30.40
2022-08-23T15:20:08.561Z,30.00
2022-08-23T15:22:39.919Z,29.90
2022-08-23T15:25:12.731Z,30.20
2022-08-23T15:27:40.979Z,30.10
2022-08-23T15:30:10.291Z,30.10
2022-08-23T15:32:38.439Z,30.40
2022-08-23T15:35:11.334Z,30.20
2022-08-23T15:37:40.116Z,30.10
2022-08-23T15:40:12.909Z,30.20
2022-08-23T15:42:42.827Z,30.30
2022-08-23T15:45:12.009Z,30.50
2022-08-23T15:47:47.378Z,30.40
2022-08-23T15:50:18.651Z,30.10
2022-08-23T15:52:46.793Z,29.90
2022-08-23T15:55:15.742Z,29.70
2022-08-23T15:57:47.313Z,29.50
2022-08-23T16:00:18.088Z,29.50
2022-08-23T16:03:12.507Z,29.70
2022-08-23T16:05:37.719Z,29.90
2022-08-23T16:08:07.550Z,30.00
2022-08-23T16:10:35.908Z,29.90
2022-08-23T16:13:04.446Z,29.80
2022-08-23T16:15:32.796Z,29.70
2022-08-23T16:18:01.115Z,29.80
2022-08-23T16:20:29.263Z,30.00
2022-08-23T16:22:58.883Z,29.80
2022-08-23T16:25:27.233Z,29.90
2022-08-23T16:27:55.401Z,29.90
2022-08-23T16:30:23.867Z,29.80
2022-08-23T16:32:52.088Z,29.60
2022-08-23T16:35:20.290Z,29.60
2022-08-23T16:37:48.599Z,29.50
2022-08-23T16:40:18.334Z,29.60
2022-08-23T16:42:46.428Z,29.60
2022-08-23T16:45:14.754Z,29.50
2022-08-23T16:47:45.006Z,29.50
2022-08-23T16:50:13.811Z,29.10
2022-08-23T16:52:41.941Z,28.80
2022-08-23T16:55:12.374Z,29.00
2022-08-23T16:57:42.256Z,29.00
2022-08-23T17:00:12.919Z,29.10
2022-08-23T17:02:41.878Z,29.00
2022-08-23T17:05:13.595Z,28.90
2022-08-23T17:11:03.031Z,29.00
2022-08-23T17:13:33.248Z,28.90
2022-08-23T17:16:16.044Z,28.90
2022-08-23T17:18:44.587Z,28.90
2022-08-23T17:21:12.694Z,29.00
2022-08-23T17:23:41.035Z,29.00
2022-08-23T17:26:09.347Z,28.90
2022-08-23T17:28:38.958Z,28.90
2022-08-23T17:31:07.294Z,28.80
2022-08-23T17:33:35.426Z,28.80
2022-08-23T17:36:04.645Z,28.60
2022-08-23T17:38:32.679Z,28.50
2022-08-23T17:41:01.408Z,28.50
2022-08-23T17:43:30.011Z,28.40
2022-08-23T17:45:59.494Z,28.30
2022-08-23T17:48:28.788Z,28.00
2022-08-23T17:50:57.231Z,27.80
2022-08-23T17:53:25.295Z,27.70
2022-08-23T17:55:53.371Z,27.60
2022-08-23T17:58:21.421Z,27.50
2022-08-23T18:00:51.243Z,27.40
2022-08-23T18:03:20.714Z,27.30
2022-08-23T18:05:49.043Z,27.40
2022-08-23T18:08:17.185Z,27.40
2022-08-23T18:10:45.452Z,27.40
2022-08-23T18:13:13.636Z,27.30
2022-08-23T18:15:41.746Z,27.30
2022-08-23T18:18:09.860Z,27.30
2022-08-23T18:20:39.375Z,27.30
2022-08-23T18:23:07.907Z,27.40
2022-08-23T18:25:36.682Z,27.20
2022-08-23T18:28:06.940Z,27.00
2022-08-23T18:30:36.618Z,27.00
2022-08-23T18:33:06.334Z,27.00
2022-08-23T18:35:35.019Z,26.80
2022-08-23T18:38:04.604Z,26.50
2022-08-23T18:40:45.072Z,26.20
2022-08-23T18:43:14.817Z,25.90
2022-08-23T18:45:43.048Z,25.70
2022-08-23T18:48:12.284Z,25.50
2022-08-23T18:50:41.004Z,25.40
2022-08-23T18:53:12.460Z,25.30
2022-08-23T18:55:42.007Z,25.20
2022-08-23T18:58:10.475Z,25.20
2022-08-23T19:00:40.168Z,25.20
2022-08-23T19:03:08.863Z,25.00
2022-08-23T19:05:41.435Z,24.80
2022-08-23T19:08:13.462Z,24.60
2022-08-23T19:10:42.321Z,24.30
2022-08-23T19:13:11.092Z,24.00
2022-08-23T19:15:40.384Z,23.90
2022-08-23T19:18:10.833Z,23.90
2022-08-23T19:20:39.175Z,23.70
2022-08-23T19:23:07.489Z,23.60
2022-08-23T19:25:38.468Z,23.60
2022-08-23T19:28:07.266Z,23.40
2022-08-23T19:30:35.627Z,23.30
2022-08-23T19:33:04.698Z,23.20
2022-08-23T19:35:33.274Z,23.20
2022-08-23T19:38:01.507Z,23.10
2022-08-23T19:40:29.671Z,23.00
2022-08-23T19:43:00.392Z,23.00
2022-08-23T19:45:29.519Z,22.90
2022-08-23T19:48:00.783Z,23.00
2022-08-23T19:50:29.428Z,22.90
2022-08-23T19:52:57.637Z,22.70
2022-08-23T19:55:27.328Z,22.70
2022-08-23T19:57:56.739Z,22.70
2022-08-23T20:00:27.727Z,22.60
2022-08-23T20:02:56.147Z,22.50
2022-08-23T20:05:24.270Z,22.40
2022-08-23T20:07:52.423Z,22.40
2022-08-23T20:10:22.711Z,22.40
2022-08-23T20:12:50.760Z,22.30
2022-08-23T20:15:19.082Z,22.30
2022-08-23T20:17:48.633Z,22.30
2022-08-23T20:20:16.810Z,22.20
2022-08-23T20:23:02.852Z,22.20
2022-08-23T20:25:31.431Z,22.20
2022-08-23T20:27:59.723Z,22.20
2022-08-23T20:30:27.759Z,22.10
2022-08-23T20:32:57.327Z,22.10
2022-08-23T20:35:25.670Z,22.20
2022-08-23T20:37:53.748Z,22.10
2022-08-23T20:40:23.103Z,22.10
2022-08-23T20:42:51.683Z,22.10
2022-08-23T20:45:20.204Z,22.00
2022-08-23T20:47:48.358Z,22.00
2022-08-23T20:50:17.916Z,22.00
2022-08-23T20:52:46.930Z,22.00
2022-08-23T20:55:15.306Z,21.90
2022-08-23T20:57:43.447Z,21.80
2022-08-23T21:00:12.727Z,21.80
2022-08-23T21:02:40.824Z,21.80
2022-08-23T21:05:09.587Z,21.70
2022-08-23T21:07:40.618Z,21.50
2022-08-23T21:10:11.035Z,21.30
2022-08-23T21:12:39.410Z,21.20
2022-08-23T21:15:10.961Z,21.20
2022-08-23T21:17:39.272Z,21.20
2022-08-23T21:20:08.294Z,21.20
2022-08-23T21:22:36.428Z,21.10
2022-08-23T21:25:06.824Z,21.10
2022-08-23T21:27:34.963Z,21.00
2022-08-23T21:30:03.503Z,21.00
2022-08-23T21:32:31.715Z,21.00
2022-08-23T21:35:00.106Z,21.00
2022-08-23T21:37:28.939Z,21.00
2022-08-23T21:39:57.069Z,21.10
2022-08-23T21:42:26.559Z,21.10
2022-08-23T21:44:54.723Z,21.10
2022-08-23T21:47:23.493Z,21.20
2022-08-23T21:49:51.624Z,21.20
2022-08-23T21:52:19.702Z,21.20
2022-08-23T21:54:48.285Z,21.30
2022-08-23T21:57:16.498Z,21.30
2022-08-23T21:59:46.032Z,21.30
2022-08-23T22:02:14.189Z,21.30
2022-08-23T22:04:42.475Z,21.30
2022-08-23T22:07:10.574Z,21.20
2022-08-23T22:09:38.936Z,21.10
2022-08-23T22:12:09.584Z,21.00
2022-08-23T22:14:38.243Z,20.80
2022-08-23T22:17:07.660Z,20.70
2022-08-23T22:19:35.762Z,20.60
2022-08-23T22:22:06.199Z,20.60
2022-08-23T22:24:34.270Z,20.60
2022-08-23T22:27:02.336Z,20.60
2022-08-23T22:29:30.579Z,20.50
2022-08-23T22:31:58.670Z,20.50
2022-08-23T22:34:28.198Z,20.30
2022-08-23T22:36:56.466Z,20.40
2022-08-23T22:39:25.151Z,20.50
2022-08-23T22:41:54.180Z,20.60
2022-08-23T22:44:22.532Z,20.70
2022-08-23T22:46:50.693Z,20.60
2022-08-23T22:49:18.874Z,20.60
2022-08-23T22:51:49.101Z,20.70
2022-08-23T22:54:23.302Z,20.60
2022-08-23T22:56:52.733Z,20.50
2022-08-23T22:59:22.712Z,20.50
2022-08-23T23:01:58.448Z,20.30
2022-08-23T23:04:27.800Z,20.30
2022-08-23T23:07:00.020Z,20.20
2022-08-23T23:09:28.602Z,20.30
2022-08-23T23:11:56.828Z,20.50
2022-08-23T23:14:25.203Z,20.40
2022-08-23T23:16:54.048Z,20.30
2022-08-23T23:19:40.020Z,20.20
2022-08-23T23:22:12.141Z,20.20
2022-08-23T23:24:41.059Z,20.10
2022-08-23T23:27:09.805Z,20.10
2022-08-23T23:29:38.453Z,20.10
2022-08-23T23:32:06.912Z,20.00
2022-08-23T23:34:35.112Z,20.00
2022-08-23T23:37:03.234Z,19.90
2022-08-23T23:39:32.735Z,19.90
2022-08-23T23:42:01.047Z,19.80
2022-08-23T23:44:31.098Z,19.80
2022-08-23T23:47:01.269Z,19.60
2022-08-23T23:49:32.337Z,19.70
2022-08-23T23:52:02.504Z,19.80
2022-08-23T23:54:33.718Z,19.70
2022-08-23T23:57:02.271Z,19.70
2022-08-23T23:59:30.544Z,19.70
